sensor_id;sensor_type;location;lat;lon;timestamp;temperature;humidity
3023;DHT22;1521;53.584;9.938;2022-11-21T21:13:33;-1.20;1.00
3023;DHT22;1521;53.584;9.938;2022-11-21T21:16:19;-1.20;1.00
3023;DHT22;1521;53.584;9.938;2022-11-21T21:18:49;-1.20;1.00
3023;DHT22;1521;53.584;9.938;2022-11-21T21:21:21;-1.30;59.60
3023;DHT22;1521;53.584;9.938;2022-11-21T21:24:03;-1.30;99.90
3023;DHT22;1521;53.584;9.938;2022-11-21T21:26:35;-1.20;99.90
3023;DHT22;1521;53.584;9.938;2022-11-21T21:29:00;-1.20;99.90
3023;DHT22;1521;53.584;9.938;2022-11-21T21:31:27;-1.30;95.50
3023;DHT22;1521;53.584;9.938;2022-11-21T21:33:53;-1.20;99.90
3023;DHT22;1521;53.584;9.938;2022-11-21T21:36:21;-1.20;98.30
3023;DHT22;1521;53.584;9.938;2022-11-21T21:38:54;-1.20;25.70
3023;DHT22;1521;53.584;9.938;2022-11-21T21:41:21;-1.30;1.00
3023;DHT22;1521;53.584;9.938;2022-11-21T21:43:51;-1.20;1.00
3023;DHT22;1521;53.584;9.938;2022-11-21T21:46:18;-1.30;1.00
3023;DHT22;1521;53.584;9.938;2022-11-21T21:48:44;-1.40;1.00
3023;DHT22;1521;53.584;9.938;2022-11-21T21:51:18;-1.30;1.00
3023;DHT22;1521;53.584;9.938;2022-11-21T21:53:46;-1.30;82.20
3023;DHT22;1521;53.584;9.938;2022-11-21T21:56:13;-1.30;50.70
3023;DHT22;1521;53.584;9.938;2022-11-21T21:58:40;-1.30;99.90
3023;DHT22;1521;53.584;9.938;2022-11-21T22:01:09;-1.30;99.90
3023;DHT22;1521;53.584;9.938;2022-11-21T22:03:35;-1.30;99.90
3023;DHT22;1521;53.584;9.938;2022-11-21T22:06:08;-1.30;99.90
3023;DHT22;1521;53.584;9.938;2022-11-21T22:08:36;-1.20;99.90
3023;DHT22;1521;53.584;9.938;2022-11-21T22:11:10;-1.20;99.90
3023;DHT22;1521;53.584;9.938;2022-11-21T22:13:37;-1.20;79.40
3023;DHT22;1521;53.584;9.938;2022-11-21T22:16:04;-1.20;28.70
3023;DHT22;1521;53.584;9.938;2022-11-21T22:18:30;-1.10;1.00
3023;DHT22;1521;53.584;9.938;2022-11-21T22:20:56;-1.10;1.00
3023;DHT22;1521;53.584;9.938;2022-11-21T22:23:22;-1.10;1.00
3023;DHT22;1521;53.584;9.938;2022-11-21T22:25:49;-1.10;1.00
3023;DHT22;1521;53.584;9.938;2022-11-21T22:28:18;-1.10;1.00
3023;DHT22;1521;53.584;9.938;2022-11-21T22:30:55;-1.10;1.00
3023;DHT22;1521;53.584;9.938;2022-11-21T22:33:21;-1.00;1.00
3023;DHT22;1521;53.584;9.938;2022-11-21T22:35:47;-1.00;99.90
3023;DHT22;1521;53.584;9.938;2022-11-21T22:38:17;-1.10;99.90
3023;DHT22;1521;53.584;9.938;2022-11-21T22:40:44;-1.00;99.90
3023;DHT22;1521;53.584;9.938;2022-11-21T22:43:10;-1.00;99.90
3023;DHT22;1521;53.584;9.938;2022-11-21T22:45:36;-1.00;99.90
3023;DHT22;1521;53.584;9.938;2022-11-21T22:48:03;-0.90;99.90
3023;DHT22;1521;53.584;9.938;2022-11-21T22:50:29;-1.00;8.20
3023;DHT22;1521;53.584;9.938;2022-11-21T22:52:54;-1.00;8.00
3023;DHT22;1521;53.584;9.938;2022-11-21T22:55:20;-1.00;15.50
3023;DHT22;1521;53.584;9.938;2022-11-21T22:57:45;-1.00;1.00
3023;DHT22;1521;53.584;9.938;2022-11-21T23:00:12;-1.00;1.00
3023;DHT22;1521;53.584;9.938;2022-11-21T23:02:37;-1.00;1.00
3023;DHT22;1521;53.584;9.938;2022-11-21T23:05:03;-1.00;1.00
3023;DHT22;1521;53.584;9.938;2022-11-21T23:07:29;-1.00;1.00
3023;DHT22;1521;53.584;9.938;2022-11-21T23:09:56;-1.00;1.00
3023;DHT22;1521;53.584;9.938;2022-11-21T23:12:22;-1.00;1.00
3023;DHT22;1521;53.584;9.938;2022-11-21T23:14:47;-1.00;1.00
3023;DHT22;1521;53.584;9.938;2022-11-21T23:17:14;-1.00;1.00
3023;DHT22;1521;53.584;9.938;2022-11-21T23:19:40;-1.00;1.00
3023;DHT22;1521;53.584;9.938;2022-11-21T23:22:06;-0.90;1.00
3023;DHT22;1521;53.584;9.938;2022-11-21T23:24:32;-1.00;1.00
3023;DHT22;1521;53.584;9.938;2022-11-21T23:26:58;-1.00;1.00
3023;DHT22;1521;53.584;9.938;2022-11-21T23:29:23;-1.00;1.00
3023;DHT22;1521;53.584;9.938;2022-11-21T23:31:49;-1.00;1.00
3023;DHT22;1521;53.584;9.938;2022-11-21T23:34:14;-0.90;42.10
3023;DHT22;1521;53.584;9.938;2022-11-21T23:36:40;-0.90;1.00
3023;DHT22;1521;53.584;9.938;2022-11-21T23:39:05;-0.90;1.00
3023;DHT22;1521;53.584;9.938;2022-11-21T23:41:31;-0.90;1.00
3023;DHT22;1521;53.584;9.938;2022-11-21T23:43:57;-0.80;1.00
3023;DHT22;1521;53.584;9.938;2022-11-21T23:46:24;-0.80;1.00
3023;DHT22;1521;53.584;9.938;2022-11-21T23:48:50;-0.80;1.00
3023;DHT22;1521;53.584;9.938;2022-11-21T23:51:16;-0.90;1.00
3023;DHT22;1521;53.584;9.938;2022-11-21T23:53:41;-0.90;1.00
3023;DHT22;1521;53.584;9.938;2022-11-21T23:56:07;-0.90;1.00
3023;DHT22;1521;53.584;9.938;2022-11-21T23:58:33;-0.90;1.00
